Terminal Aerodrome Forecast
Issued by NWS

Home | Current Version | Previous Version | Text Only | Print | Product List | Glossary On
Versions: 1 2 3 4 5 6 7 8 9 10 11 12 13 14 15 16 17 18
000
FTUS43 KSGF 180527
TAFBBG
TAF
KBBG 180527Z 1806/1906 00000KT 5SM BR FEW250
     FM181000 VRB03KT 4SM BR FEW090
     FM181300 13007KT 4SM BR FEW060
     FM181500 14011KT P6SM FEW090
     FM182200 16014G23KT P6SM BKN140
     FM190100 16010KT P6SM BKN250 WS020/21045KT=

USA.gov is the U.S. government's official web portal to all federal, state and local government web resources and services.